createdAt,value
2019-03-22T00:00:31.274Z,35.40
2019-03-22T00:03:02.265Z,34.38
2019-03-22T00:05:32.728Z,38.98
2019-03-22T00:08:03.430Z,31.87
2019-03-22T00:10:34.133Z,41.80
2019-03-22T00:13:04.889Z,38.53
2019-03-22T00:15:35.428Z,30.08
2019-03-22T00:18:06.149Z,34.33
2019-03-22T00:20:36.809Z,34.38
2019-03-22T00:23:07.340Z,30.27
2019-03-22T00:25:38.050Z,33.75
2019-03-22T00:28:08.769Z,34.92
2019-03-22T00:30:39.406Z,34.27
2019-03-22T00:33:10.524Z,34.53
2019-03-22T00:35:41.245Z,35.45
2019-03-22T00:38:11.807Z,34.83
2019-03-22T00:40:44.290Z,29.55
2019-03-22T00:43:14.902Z,30.97
2019-03-22T00:45:45.614Z,34.45
2019-03-22T00:48:16.237Z,30.65
2019-03-22T00:50:46.976Z,30.75
2019-03-22T00:53:17.533Z,41.13
2019-03-22T00:55:49.963Z,32.80
2019-03-22T00:58:21.634Z,30.02
2019-03-22T01:00:52.625Z,36.38
2019-03-22T01:03:23.151Z,38.42
2019-03-22T01:05:53.818Z,35.75
2019-03-22T01:08:24.761Z,41.73
2019-03-22T01:10:55.487Z,40.67
2019-03-22T01:13:26.170Z,36.85
2019-03-22T01:15:58.065Z,34.58
2019-03-22T01:18:28.789Z,33.10
2019-03-22T01:20:59.546Z,43.98
2019-03-22T01:23:30.271Z,35.35
2019-03-22T01:26:01.021Z,38.28
2019-03-22T01:28:31.607Z,42.78
2019-03-22T01:31:02.194Z,40.75
2019-03-22T01:33:32.852Z,39.73
2019-03-22T01:36:03.483Z,41.28
2019-03-22T01:38:34.144Z,38.00
2019-03-22T01:41:04.843Z,39.25
2019-03-22T01:43:35.785Z,43.63
2019-03-22T01:46:06.487Z,39.25
2019-03-22T01:48:37.144Z,39.35
2019-03-22T01:51:07.836Z,45.08
2019-03-22T01:53:38.403Z,37.93
2019-03-22T01:56:09.055Z,40.55
2019-03-22T01:58:39.543Z,43.58
2019-03-22T02:01:10.103Z,38.02
2019-03-22T02:03:40.803Z,44.48
2019-03-22T02:06:11.454Z,42.00
2019-03-22T02:08:41.955Z,48.42
2019-03-22T02:11:12.469Z,38.98
2019-03-22T02:13:43.123Z,41.00
2019-03-22T02:16:13.720Z,42.88
2019-03-22T02:18:44.543Z,41.28
2019-03-22T02:21:15.199Z,38.60
2019-03-22T02:23:45.916Z,39.25
2019-03-22T02:26:16.544Z,43.63
2019-03-22T02:28:47.211Z,40.95
2019-03-22T02:31:18.093Z,44.33
2019-03-22T02:33:48.593Z,40.67
2019-03-22T02:36:19.205Z,41.25
2019-03-22T02:38:49.882Z,38.02
2019-03-22T02:41:20.477Z,41.40
2019-03-22T02:43:54.432Z,43.55
2019-03-22T02:46:23.490Z,46.45
2019-03-22T02:48:54.358Z,42.03
2019-03-22T02:51:24.915Z,40.25
2019-03-22T02:53:55.615Z,43.55
2019-03-22T02:56:26.224Z,43.58
2019-03-22T02:58:59.340Z,42.88
2019-03-22T03:01:29.411Z,42.78
2019-03-22T03:04:00.022Z,39.60
2019-03-22T03:06:30.685Z,49.03
2019-03-22T03:09:01.419Z,42.65
2019-03-22T03:11:33.620Z,42.17
2019-03-22T03:14:04.322Z,44.65
2019-03-22T03:16:34.956Z,46.85
2019-03-22T03:19:05.647Z,45.52
2019-03-22T03:21:36.362Z,43.45
2019-03-22T03:24:07.046Z,48.02
2019-03-22T03:26:37.717Z,40.83
2019-03-22T03:29:08.323Z,40.12
2019-03-22T03:31:39.046Z,40.38
2019-03-22T03:34:09.706Z,43.08
2019-03-22T03:36:40.373Z,39.15
2019-03-22T03:39:10.910Z,43.58
2019-03-22T03:41:41.528Z,42.67
2019-03-22T03:44:12.206Z,44.42
2019-03-22T03:46:42.817Z,47.00
2019-03-22T03:49:13.610Z,40.25
2019-03-22T03:51:44.465Z,48.63
2019-03-22T03:54:15.332Z,47.62
2019-03-22T03:56:45.893Z,45.60
2019-03-22T03:59:16.586Z,45.50
2019-03-22T04:01:54.954Z,52.35
2019-03-22T04:04:27.833Z,51.15
2019-03-22T04:06:58.594Z,50.33
2019-03-22T04:09:37.309Z,52.80
2019-03-22T04:12:20.451Z,45.35
2019-03-22T04:14:52.269Z,50.90
2019-03-22T04:17:22.880Z,48.23
2019-03-22T04:19:53.700Z,49.30
2019-03-22T04:22:24.405Z,55.15
2019-03-22T04:24:55.086Z,56.75
2019-03-22T04:27:27.698Z,50.00
2019-03-22T04:30:05.706Z,53.80
2019-03-22T04:32:36.663Z,53.63
2019-03-22T04:35:08.146Z,60.43
2019-03-22T04:37:51.540Z,46.90
2019-03-22T04:40:27.850Z,54.03
2019-03-22T04:43:12.200Z,52.93
2019-03-22T04:45:43.160Z,49.55
2019-03-22T04:48:28.177Z,57.60
2019-03-22T04:51:01.704Z,51.05
2019-03-22T04:53:37.884Z,51.88
2019-03-22T04:56:17.112Z,59.10
2019-03-22T04:58:57.130Z,55.25
2019-03-22T05:01:29.130Z,64.42
2019-03-22T05:04:00.115Z,61.15
2019-03-22T05:06:32.824Z,60.73
2019-03-22T05:09:06.303Z,56.80
2019-03-22T05:11:37.405Z,70.08
2019-03-22T05:14:08.515Z,58.52
2019-03-22T05:16:51.344Z,65.28
2019-03-22T05:19:49.505Z,58.33
2019-03-22T05:22:22.263Z,72.80
2019-03-22T05:24:54.786Z,67.78
2019-03-22T05:27:26.772Z,64.32
2019-03-22T05:29:59.375Z,59.48
2019-03-22T05:32:34.848Z,63.92
2019-03-22T05:35:07.445Z,63.98
2019-03-22T05:37:38.248Z,61.85
2019-03-22T05:40:21.315Z,68.00
2019-03-22T05:43:02.284Z,70.03
2019-03-22T05:45:33.344Z,69.05
2019-03-22T05:48:04.111Z,64.40
2019-03-22T05:50:34.754Z,72.42
2019-03-22T05:53:05.872Z,67.55
2019-03-22T05:55:36.527Z,63.20
2019-03-22T05:58:08.827Z,58.92
2019-03-22T06:00:45.637Z,60.95
2019-03-22T06:03:21.520Z,58.28
2019-03-22T06:06:04.453Z,64.05
2019-03-22T06:08:35.207Z,58.83
2019-03-22T06:11:06.530Z,67.55
2019-03-22T06:13:37.203Z,62.23
2019-03-22T06:16:17.998Z,60.98
2019-03-22T06:18:50.498Z,57.43
2019-03-22T06:21:33.600Z,64.30
2019-03-22T06:24:04.546Z,60.45
2019-03-22T06:26:50.206Z,67.75
2019-03-22T06:29:20.848Z,61.30
2019-03-22T06:31:51.524Z,60.92
2019-03-22T06:34:22.224Z,59.60
2019-03-22T06:37:09.620Z,64.60
2019-03-22T06:39:52.562Z,65.87
2019-03-22T06:42:34.453Z,64.67
2019-03-22T06:45:14.531Z,61.68
2019-03-22T06:47:45.531Z,66.22
2019-03-22T06:50:16.405Z,54.40
2019-03-22T06:52:52.199Z,57.23
2019-03-22T06:55:27.140Z,53.98
2019-03-22T06:57:58.440Z,57.70
2019-03-22T07:00:42.853Z,63.03
2019-03-22T07:03:31.860Z,51.48
2019-03-22T07:06:16.756Z,59.55
2019-03-22T07:09:18.839Z,52.53
2019-03-22T07:12:00.371Z,52.30
2019-03-22T07:14:33.252Z,44.65
2019-03-22T07:17:24.147Z,52.05
2019-03-22T07:20:06.980Z,50.70
2019-03-22T07:22:37.733Z,51.45
2019-03-22T07:25:09.393Z,50.50
2019-03-22T07:27:40.212Z,48.90
2019-03-22T07:30:18.727Z,53.58
2019-03-22T07:32:43.752Z,47.78
2019-03-22T07:35:24.959Z,49.23
2019-03-22T07:38:06.740Z,42.70
2019-03-22T07:40:37.464Z,41.88
2019-03-22T07:43:09.686Z,43.50
2019-03-22T07:45:40.318Z,43.17
2019-03-22T07:48:11.152Z,39.20
2019-03-22T07:50:48.162Z,42.60
2019-03-22T07:53:18.765Z,41.48
2019-03-22T07:55:49.591Z,38.28
2019-03-22T07:58:30.458Z,38.85
2019-03-22T08:01:01.176Z,41.28
2019-03-22T08:03:31.855Z,37.78
2019-03-22T08:06:02.650Z,36.45
2019-03-22T08:08:33.578Z,32.78
2019-03-22T08:11:04.477Z,31.62
2019-03-22T08:13:35.655Z,32.73
2019-03-22T08:16:06.586Z,35.00
2019-03-22T08:18:37.524Z,31.40
2019-03-22T08:21:08.256Z,29.55
2019-03-22T08:23:38.888Z,37.73
2019-03-22T08:26:09.745Z,29.32
2019-03-22T08:28:42.576Z,27.30
2019-03-22T08:31:13.313Z,23.85
2019-03-22T08:34:05.264Z,29.37
2019-03-22T08:36:49.691Z,20.52
2019-03-22T08:39:34.323Z,21.65
2019-03-22T08:42:17.178Z,22.85
2019-03-22T08:52:52.648Z,17.70
2019-03-22T08:55:23.610Z,19.23
2019-03-22T08:57:54.337Z,18.80
2019-03-22T09:00:38.283Z,15.88
2019-03-22T09:02:57.557Z,21.20
2019-03-22T09:05:28.372Z,15.80
2019-03-22T09:07:59.286Z,16.97
2019-03-22T09:10:30.024Z,18.20
2019-03-22T09:13:00.896Z,15.88
2019-03-22T09:15:41.163Z,15.68
2019-03-22T09:18:04.101Z,16.85
2019-03-22T09:20:34.923Z,13.20
2019-03-22T09:23:06.637Z,14.75
2019-03-22T09:25:37.377Z,15.65
2019-03-22T09:28:10.258Z,11.53
2019-03-22T09:30:40.581Z,9.83
2019-03-22T09:33:13.398Z,8.95
2019-03-22T09:35:43.719Z,13.98
2019-03-22T09:38:14.327Z,10.90
2019-03-22T09:40:45.127Z,9.08
2019-03-22T09:43:15.720Z,8.35
2019-03-22T09:45:46.409Z,7.60
2019-03-22T09:48:16.953Z,4.30
2019-03-22T09:50:47.709Z,5.05
2019-03-22T09:53:18.535Z,5.50
2019-03-22T09:55:49.318Z,5.60
2019-03-22T09:58:21.047Z,4.47
2019-03-22T10:00:51.890Z,4.67
2019-03-22T10:03:22.910Z,7.90
2019-03-22T10:05:53.783Z,5.22
2019-03-22T10:08:24.593Z,6.35
2019-03-22T10:10:55.381Z,4.87
2019-03-22T10:13:26.468Z,5.92
2019-03-22T10:15:57.365Z,4.80
2019-03-22T10:18:28.210Z,5.22
2019-03-22T10:20:59.045Z,3.95
2019-03-22T10:23:34.088Z,4.80
2019-03-22T10:26:04.679Z,6.37
2019-03-22T10:28:35.386Z,4.30
2019-03-22T10:31:10.153Z,5.55
2019-03-22T10:33:41.109Z,5.37
2019-03-22T10:36:11.763Z,4.35
2019-03-22T10:38:42.384Z,4.03
2019-03-22T10:41:13.432Z,3.52
2019-03-22T10:43:44.029Z,3.55
2019-03-22T10:46:14.597Z,4.70
2019-03-22T10:48:45.337Z,5.70
2019-03-22T10:51:15.855Z,4.55
2019-03-22T10:53:46.537Z,5.45
2019-03-22T10:56:17.065Z,3.60
2019-03-22T10:58:47.624Z,4.60
2019-03-22T11:01:20.144Z,3.83
2019-03-22T11:03:50.699Z,5.30
2019-03-22T11:06:26.314Z,5.15
2019-03-22T11:08:55.455Z,4.70
2019-03-22T11:11:26.274Z,3.50
2019-03-22T11:13:57.004Z,4.72
2019-03-22T11:16:27.621Z,5.10
2019-03-22T11:18:58.358Z,3.87
2019-03-22T11:21:29.070Z,8.48
2019-03-22T11:23:59.719Z,4.78
2019-03-22T11:26:30.344Z,5.22
2019-03-22T11:29:00.945Z,5.67
2019-03-22T11:31:39.506Z,5.58
2019-03-22T11:34:04.201Z,5.22
2019-03-22T11:36:34.744Z,6.85
2019-03-22T11:39:15.415Z,3.85
2019-03-22T11:41:44.056Z,4.40
2019-03-22T11:44:15.719Z,3.67
2019-03-22T11:46:46.495Z,5.25
2019-03-22T11:49:16.971Z,7.33
2019-03-22T11:51:47.863Z,5.17
2019-03-22T11:54:18.501Z,5.75
2019-03-22T11:56:49.019Z,6.12
2019-03-22T11:59:19.455Z,7.35
2019-03-22T12:01:50.076Z,7.97
2019-03-22T12:04:21.835Z,9.58
2019-03-22T12:06:52.441Z,5.92
2019-03-22T12:09:23.461Z,7.65
2019-03-22T12:11:53.938Z,6.92
2019-03-22T12:14:24.518Z,4.80
2019-03-22T12:16:56.616Z,6.45
2019-03-22T12:19:27.443Z,5.20
2019-03-22T12:21:58.085Z,7.67
2019-03-22T12:24:28.783Z,4.25
2019-03-22T12:26:59.597Z,4.72
2019-03-22T12:29:30.256Z,8.25
2019-03-22T12:32:00.797Z,7.30
2019-03-22T12:34:31.559Z,5.62
2019-03-22T12:37:02.196Z,6.53
2019-03-22T12:39:32.845Z,7.17
2019-03-22T12:42:03.582Z,4.37
2019-03-22T12:44:34.240Z,11.60
2019-03-22T12:47:04.996Z,4.75
2019-03-22T12:49:35.590Z,4.30
2019-03-22T12:52:06.222Z,6.15
2019-03-22T12:54:36.953Z,5.97
2019-03-22T12:57:07.987Z,5.92
2019-03-22T12:59:38.723Z,6.55
2019-03-22T13:02:09.493Z,4.35
2019-03-22T13:04:40.637Z,7.00
2019-03-22T13:07:11.337Z,4.22
2019-03-22T13:09:41.924Z,4.25
2019-03-22T13:12:14.136Z,4.75
2019-03-22T13:14:44.778Z,4.22
2019-03-22T13:17:15.436Z,6.87
2019-03-22T13:19:47.142Z,4.22
2019-03-22T13:22:18.768Z,4.47
2019-03-22T13:24:49.320Z,5.85
2019-03-22T13:27:19.891Z,6.35
2019-03-22T13:29:50.489Z,7.22
2019-03-22T13:32:21.183Z,3.12
2019-03-22T13:34:51.729Z,5.55
2019-03-22T13:37:22.307Z,12.07
2019-03-22T13:39:52.983Z,7.67
2019-03-22T13:42:25.176Z,4.67
2019-03-22T13:44:55.857Z,5.83
2019-03-22T13:47:26.612Z,6.78
2019-03-22T13:49:57.297Z,5.37
2019-03-22T13:52:27.926Z,5.70
2019-03-22T13:54:58.435Z,4.87
2019-03-22T13:57:30.270Z,6.62
2019-03-22T14:00:00.852Z,7.55
2019-03-22T14:02:31.597Z,5.00
2019-03-22T14:05:02.304Z,5.70
2019-03-22T14:07:32.928Z,7.28
2019-03-22T14:10:03.575Z,4.33
2019-03-22T14:12:37.445Z,4.60
2019-03-22T14:15:08.763Z,6.45
2019-03-22T14:17:39.435Z,6.53
2019-03-22T14:20:11.480Z,3.87
2019-03-22T14:22:42.562Z,4.90
2019-03-22T14:25:13.205Z,3.42
2019-03-22T14:27:45.737Z,5.28
2019-03-22T14:30:16.995Z,6.62
2019-03-22T14:32:47.538Z,9.45
2019-03-22T14:35:18.057Z,9.95
2019-03-22T14:37:48.743Z,5.05
2019-03-22T14:40:19.300Z,7.10
2019-03-22T14:42:49.923Z,3.77
2019-03-22T14:45:20.691Z,5.60
2019-03-22T14:47:51.224Z,4.50
2019-03-22T14:50:21.879Z,6.15
2019-03-22T14:52:53.513Z,6.75
2019-03-22T14:55:25.503Z,6.78
2019-03-22T14:57:56.410Z,4.47
2019-03-22T15:00:26.978Z,5.78
2019-03-22T15:02:57.862Z,8.25
2019-03-22T15:05:28.403Z,9.20
2019-03-22T15:07:59.122Z,6.30
2019-03-22T15:10:29.775Z,11.25
2019-03-22T15:13:00.691Z,6.50
2019-03-22T15:15:46.601Z,8.78
2019-03-22T15:18:36.203Z,8.90
2019-03-22T15:21:23.217Z,5.10
2019-03-22T15:24:12.948Z,7.92
2019-03-22T15:27:04.169Z,7.35
2019-03-22T15:29:43.303Z,7.08
2019-03-22T15:32:32.935Z,7.42
2019-03-22T15:35:22.623Z,4.62
2019-03-22T15:38:06.199Z,6.42
2019-03-22T15:40:37.044Z,6.55
2019-03-22T15:43:07.842Z,6.85
2019-03-22T15:45:38.429Z,7.40
2019-03-22T15:48:09.102Z,4.42
2019-03-22T15:50:39.903Z,7.58
2019-03-22T15:53:10.543Z,7.35
2019-03-22T15:55:41.277Z,7.53
2019-03-22T15:58:11.948Z,5.17
2019-03-22T16:00:42.626Z,4.08
2019-03-22T16:03:13.330Z,13.20
2019-03-22T16:05:45.025Z,8.00
2019-03-22T16:08:16.266Z,6.75
2019-03-22T16:10:48.305Z,10.03
2019-03-22T16:13:23.035Z,13.45
2019-03-22T16:16:04.664Z,6.62
2019-03-22T16:18:41.083Z,6.20
2019-03-22T16:21:22.789Z,7.62
2019-03-22T16:24:03.685Z,8.43
2019-03-22T16:26:35.640Z,8.38
2019-03-22T16:29:09.911Z,11.22
2019-03-22T16:31:41.450Z,10.40
2019-03-22T16:34:13.593Z,16.07
2019-03-22T16:36:45.659Z,14.60
2019-03-22T16:39:22.157Z,13.78
2019-03-22T16:42:10.148Z,10.85
2019-03-22T16:44:41.998Z,6.10
2019-03-22T16:47:12.544Z,11.83
2019-03-22T16:49:47.641Z,7.20
2019-03-22T16:52:18.754Z,14.28
2019-03-22T16:54:52.234Z,11.15
2019-03-22T16:57:23.757Z,12.10
2019-03-22T16:59:54.630Z,13.40
2019-03-22T17:02:36.437Z,11.38
2019-03-22T17:05:15.410Z,11.95
2019-03-22T17:07:59.996Z,12.07
2019-03-22T17:10:44.768Z,22.90
2019-03-22T17:13:17.023Z,43.25
2019-03-22T17:15:54.304Z,17.07
2019-03-22T17:18:33.537Z,26.97
2019-03-22T17:21:10.979Z,15.83
2019-03-22T17:23:43.504Z,14.93
2019-03-22T17:26:14.477Z,21.10
2019-03-22T17:28:46.295Z,11.43
2019-03-22T17:31:22.038Z,11.88
2019-03-22T17:33:53.083Z,15.95
2019-03-22T17:36:23.808Z,17.05
2019-03-22T17:38:54.571Z,17.40
2019-03-22T17:41:25.236Z,28.65
2019-03-22T17:43:56.033Z,35.15
2019-03-22T17:46:29.974Z,35.35
2019-03-22T17:49:00.611Z,36.50
2019-03-22T17:51:36.413Z,33.63
2019-03-22T17:54:15.033Z,28.23
2019-03-22T17:56:57.950Z,28.05
2019-03-22T17:59:43.756Z,26.20
2019-03-22T18:02:21.138Z,28.73
2019-03-22T18:04:59.529Z,35.40
2019-03-22T18:07:36.855Z,31.52
2019-03-22T18:10:14.567Z,38.85
2019-03-22T18:12:53.176Z,46.63
2019-03-22T18:15:38.549Z,65.80
2019-03-22T18:18:17.040Z,62.17
2019-03-22T18:20:50.779Z,91.55
2019-03-22T18:24:08.275Z,127.02
2019-03-22T18:26:43.326Z,110.88
2019-03-22T18:29:13.822Z,86.57
2019-03-22T18:31:44.516Z,69.20
2019-03-22T18:34:15.317Z,44.18
2019-03-22T18:36:46.365Z,39.13
2019-03-22T18:39:16.956Z,45.92
2019-03-22T18:41:47.692Z,32.93
2019-03-22T18:44:18.446Z,38.53
2019-03-22T18:46:49.164Z,37.50
2019-03-22T18:49:19.786Z,42.85
2019-03-22T18:51:50.403Z,44.53
2019-03-22T18:54:20.976Z,36.30
2019-03-22T18:56:52.057Z,40.40
2019-03-22T18:59:22.664Z,42.80
2019-03-22T19:01:53.361Z,46.28
2019-03-22T19:04:24.076Z,40.63
2019-03-22T19:06:54.682Z,43.58
2019-03-22T19:09:47.519Z,43.30
2019-03-22T19:12:39.619Z,44.90
2019-03-22T19:15:19.682Z,44.63
2019-03-22T19:17:55.993Z,61.23
2019-03-22T19:20:37.246Z,52.33
2019-03-22T19:23:14.293Z,74.60
2019-03-22T19:26:01.256Z,78.97
2019-03-22T19:28:45.083Z,73.28
2019-03-22T19:31:18.198Z,91.85
2019-03-22T19:33:55.788Z,75.37
2019-03-22T19:36:27.139Z,75.67
2019-03-22T19:38:59.367Z,97.65
2019-03-22T19:41:37.596Z,84.42
2019-03-22T19:44:35.187Z,87.72
2019-03-22T19:47:13.072Z,99.80
2019-03-22T19:49:48.598Z,82.47
2019-03-22T19:52:30.229Z,63.85
2019-03-22T19:55:22.839Z,67.10
2019-03-22T19:58:10.046Z,96.60
2019-03-22T20:01:09.022Z,120.33
2019-03-22T20:03:43.229Z,111.70
2019-03-22T20:06:24.463Z,78.22
2019-03-22T20:08:59.298Z,63.07
2019-03-22T20:11:34.218Z,83.20
2019-03-22T20:14:06.338Z,92.47
2019-03-22T20:16:39.498Z,100.72
2019-03-22T20:19:11.396Z,87.45
2019-03-22T20:21:44.016Z,96.82
2019-03-22T20:24:15.937Z,122.42
2019-03-22T20:26:46.628Z,98.10
2019-03-22T20:29:28.774Z,97.92
2019-03-22T20:32:13.084Z,124.67
2019-03-22T20:34:46.545Z,101.33
2019-03-22T20:37:24.044Z,104.78
2019-03-22T20:39:59.488Z,121.15
2019-03-22T20:42:34.303Z,99.55
2019-03-22T20:45:23.282Z,101.55
2019-03-22T20:47:50.155Z,114.93
2019-03-22T20:50:35.362Z,108.60
2019-03-22T20:53:06.305Z,101.53
2019-03-22T20:55:37.763Z,119.55
2019-03-22T20:58:25.407Z,136.88
2019-03-22T21:01:10.832Z,118.72
2019-03-22T21:04:02.349Z,142.53
2019-03-22T21:07:03.976Z,125.70
2019-03-22T21:09:42.139Z,117.83
2019-03-22T21:12:23.515Z,124.40
2019-03-22T21:14:59.171Z,120.05
2019-03-22T21:17:41.234Z,129.95
2019-03-22T21:20:26.065Z,125.55
2019-03-22T21:23:01.209Z,106.57
2019-03-22T21:25:38.464Z,130.77
2019-03-22T21:28:16.140Z,116.17
2019-03-22T21:30:49.886Z,157.33
2019-03-22T21:33:20.551Z,151.05
2019-03-22T21:35:51.211Z,140.57
2019-03-22T21:38:36.853Z,129.33
2019-03-22T21:41:16.699Z,143.60
2019-03-22T21:43:48.433Z,167.22
2019-03-22T21:46:20.092Z,128.93
2019-03-22T21:48:51.829Z,129.93
2019-03-22T21:51:35.932Z,143.00
2019-03-22T21:54:07.208Z,140.73
2019-03-22T21:56:38.475Z,126.10
2019-03-22T21:59:12.644Z,130.57
2019-03-22T22:01:44.044Z,150.60
2019-03-22T22:04:15.858Z,136.60
2019-03-22T22:06:47.825Z,136.93
2019-03-22T22:09:18.567Z,114.30
2019-03-22T22:11:49.258Z,110.43
2019-03-22T22:14:20.753Z,121.07
2019-03-22T22:16:51.425Z,120.05
2019-03-22T22:19:21.957Z,123.40
2019-03-22T22:21:52.461Z,124.50
2019-03-22T22:24:22.985Z,133.83
2019-03-22T22:26:53.626Z,123.20
2019-03-22T22:29:24.194Z,122.40
2019-03-22T22:31:55.848Z,128.13
2019-03-22T22:34:26.349Z,110.07
2019-03-22T22:36:56.893Z,111.10
2019-03-22T22:39:27.518Z,101.03
2019-03-22T22:41:58.153Z,131.37
2019-03-22T22:44:28.885Z,141.00
2019-03-22T22:46:59.426Z,121.73
2019-03-22T22:49:30.035Z,124.07
2019-03-22T22:52:00.715Z,123.43
2019-03-22T22:54:31.570Z,122.53
2019-03-22T22:57:03.834Z,136.17
2019-03-22T22:59:34.442Z,126.60
2019-03-22T23:02:05.170Z,114.43
2019-03-22T23:04:35.847Z,119.63
2019-03-22T23:07:06.551Z,123.00
2019-03-22T23:09:37.132Z,118.67
2019-03-22T23:12:07.829Z,133.30
2019-03-22T23:14:38.602Z,126.78
2019-03-22T23:17:09.222Z,124.87
2019-03-22T23:19:39.794Z,125.10
2019-03-22T23:22:13.384Z,120.60
2019-03-22T23:24:45.865Z,121.17
2019-03-22T23:27:16.585Z,133.20
2019-03-22T23:29:47.221Z,122.17
2019-03-22T23:32:18.886Z,126.33
2019-03-22T23:34:58.650Z,135.83
2019-03-22T23:37:23.144Z,129.77
2019-03-22T23:39:53.741Z,133.93
2019-03-22T23:42:24.545Z,125.07
2019-03-22T23:44:56.274Z,119.70
2019-03-22T23:47:26.992Z,122.67
2019-03-22T23:49:57.613Z,130.30
2019-03-22T23:52:28.412Z,126.77
2019-03-22T23:54:58.890Z,134.67
2019-03-22T23:57:29.464Z,127.37
2019-03-22T23:59:59.948Z,132.47
